Time;durP1;ratioP1;P1;durP2;ratioP2;P2;SDS_P1;SDS_P2;PMS_P1;PMS_P2;Temp;Humidity;BMP_temperature;BMP_pressure;BME280_temperature;BME280_humidity;BME280_pressure;Samples;Min_cycle;Max_cycle;Signal;HPM_P1;HPM_P2
2021/03/08 00:00:32;;;;;;;57.60;33.10;;;;;;;;;;772370;180;1013415;-68
2021/03/08 00:02:57;;;;;;;60.47;33.10;;;;;;;;;;773951;179;920175;-68
2021/03/08 00:05:23;;;;;;;52.27;32.10;;;;;;;;;;771997;180;920287;-68
2021/03/08 00:07:49;;;;;;;61.23;33.43;;;;;;;;;;773203;180;947953;-68
2021/03/08 00:10:15;;;;;;;57.43;32.87;;;;;;;;;;770513;180;918451;-68
2021/03/08 00:12:42;;;;;;;62.70;34.37;;;;;;;;;;769081;180;1023270;-68
2021/03/08 00:15:08;;;;;;;59.57;33.13;;;;;;;;;;775438;180;915411;-68
2021/03/08 00:17:34;;;;;;;54.80;31.97;;;;;;;;;;769768;180;917339;-68
2021/03/08 00:20:00;;;;;;;61.00;33.83;;;;;;;;;;770340;180;864808;-68
2021/03/08 00:22:25;;;;;;;52.87;31.13;;;;;;;;;;778099;181;919332;-68
2021/03/08 00:24:51;;;;;;;59.13;35.30;;;;;;;;;;770659;180;919137;-68
2021/03/08 00:27:17;;;;;;;55.00;31.97;;;;;;;;;;772590;181;921073;-68
2021/03/08 00:29:43;;;;;;;58.80;33.70;;;;;;;;;;774878;180;919895;-68
2021/03/08 00:32:09;;;;;;;55.60;33.10;;;;;;;;;;774177;180;919348;-68
2021/03/08 00:34:35;;;;;;;66.63;33.60;;;;;;;;;;767262;180;918752;-68
2021/03/08 00:37:01;;;;;;;54.00;30.98;;;;;;;;;;775155;180;919797;-66
2021/03/08 00:39:27;;;;;;;52.30;32.60;;;;;;;;;;769102;181;919942;-67
2021/03/08 00:41:52;;;;;;;55.20;32.70;;;;;;;;;;755426;180;2889363;-68
2021/03/08 00:44:18;;;;;;;63.23;33.47;;;;;;;;;;768901;180;919286;-68
2021/03/08 00:46:44;;;;;;;57.60;34.33;;;;;;;;;;777137;180;919584;-67
2021/03/08 00:49:10;;;;;;;58.23;32.60;;;;;;;;;;769893;180;924526;-67
2021/03/08 00:51:36;;;;;;;58.43;31.63;;;;;;;;;;769454;180;1020872;-68
2021/03/08 00:54:02;;;;;;;57.83;33.67;;;;;;;;;;773669;181;917685;-67
2021/03/08 00:56:27;;;;;;;51.57;32.30;;;;;;;;;;769215;181;919452;-68
2021/03/08 00:58:53;;;;;;;55.53;34.40;;;;;;;;;;772024;181;919413;-68
2021/03/08 01:01:19;;;;;;;58.20;31.40;;;;;;;;;;774744;180;922811;-68
2021/03/08 01:03:45;;;;;;;50.05;31.08;;;;;;;;;;766734;181;919269;-67
2021/03/08 01:06:11;;;;;;;65.47;32.73;;;;;;;;;;767221;180;934687;-67
2021/03/08 01:08:37;;;;;;;58.90;33.57;;;;;;;;;;767744;180;917620;-68
2021/03/08 01:11:05;;;;;;;52.13;31.23;;;;;;;;;;769951;181;919079;-70
2021/03/08 01:13:31;;;;;;;49.10;29.15;;;;;;;;;;769085;180;919103;-68
2021/03/08 01:15:56;;;;;;;54.80;33.10;;;;;;;;;;773923;180;927620;-68
2021/03/08 01:18:23;;;;;;;50.87;31.60;;;;;;;;;;775829;180;919166;-67
2021/03/08 01:20:49;;;;;;;56.33;33.10;;;;;;;;;;772538;180;919259;-67
2021/03/08 01:23:14;;;;;;;56.90;32.00;;;;;;;;;;769295;180;921237;-68
2021/03/08 01:25:40;;;;;;;61.33;31.30;;;;;;;;;;776841;181;920934;-68
2021/03/08 01:28:06;;;;;;;52.83;30.87;;;;;;;;;;770349;180;918866;-68
2021/03/08 01:30:32;;;;;;;51.83;29.07;;;;;;;;;;771795;181;919288;-68
2021/03/08 01:32:58;;;;;;;55.45;29.65;;;;;;;;;;767490;180;919008;-67
2021/03/08 01:35:24;;;;;;;49.73;33.87;;;;;;;;;;772583;181;921270;-68
2021/03/08 01:37:50;;;;;;;56.83;31.00;;;;;;;;;;765401;180;917960;-68
2021/03/08 01:40:16;;;;;;;55.03;31.50;;;;;;;;;;766367;180;1021720;-68
2021/03/08 01:42:42;;;;;;;66.23;31.23;;;;;;;;;;773185;181;918682;-68
2021/03/08 01:45:08;;;;;;;58.38;32.25;;;;;;;;;;767909;180;920278;-68
2021/03/08 01:47:34;;;;;;;54.83;32.22;;;;;;;;;;768300;180;914069;-68
2021/03/08 01:50:00;;;;;;;54.93;31.67;;;;;;;;;;775714;180;919432;-68
2021/03/08 01:52:27;;;;;;;61.13;34.40;;;;;;;;;;768558;180;914890;-70
2021/03/08 01:54:53;;;;;;;62.67;34.43;;;;;;;;;;771150;180;939501;-67
2021/03/08 01:57:19;;;;;;;58.00;33.03;;;;;;;;;;775242;180;919424;-68
2021/03/08 01:59:45;;;;;;;64.37;32.80;;;;;;;;;;766374;181;949701;-68
2021/03/08 02:02:10;;;;;;;67.93;35.47;;;;;;;;;;769606;180;919398;-69
2021/03/08 02:04:36;;;;;;;60.93;35.20;;;;;;;;;;763481;180;2190468;-67
2021/03/08 02:07:02;;;;;;;74.17;37.60;;;;;;;;;;775247;180;919494;-68
2021/03/08 02:09:28;;;;;;;60.07;33.97;;;;;;;;;;767101;180;918077;-68
2021/03/08 02:11:56;;;;;;;54.90;33.17;;;;;;;;;;772425;180;919245;-68
2021/03/08 02:14:25;;;;;;;63.70;37.50;;;;;;;;;;773851;180;920903;-67
2021/03/08 02:16:52;;;;;;;55.27;31.50;;;;;;;;;;768075;180;919798;-68
2021/03/08 02:19:20;;;;;;;62.90;35.35;;;;;;;;;;765982;180;920174;-67
2021/03/08 02:22:04;;;;;;;65.50;36.03;;;;;;;;;;761952;181;919721;-67
2021/03/08 02:24:33;;;;;;;60.60;35.10;;;;;;;;;;759509;182;919469;-68
2021/03/08 02:27:03;;;;;;;57.40;35.03;;;;;;;;;;776922;180;918645;-68
2021/03/08 02:29:32;;;;;;;64.00;32.08;;;;;;;;;;768349;180;1002301;-68
2021/03/08 02:31:58;;;;;;;49.37;30.97;;;;;;;;;;766756;180;933004;-69
2021/03/08 02:34:24;;;;;;;59.20;30.77;;;;;;;;;;769117;180;920000;-68
2021/03/08 02:36:50;;;;;;;49.23;29.63;;;;;;;;;;767594;183;915727;-68
2021/03/08 02:39:17;;;;;;;55.77;28.23;;;;;;;;;;763760;180;916298;-68
2021/03/08 02:41:42;;;;;;;49.50;30.13;;;;;;;;;;772311;178;991664;-68
2021/03/08 02:44:09;;;;;;;58.47;33.47;;;;;;;;;;778397;180;921122;-68
2021/03/08 02:46:36;;;;;;;59.73;33.60;;;;;;;;;;771310;180;918693;-68
2021/03/08 02:49:01;;;;;;;62.73;35.10;;;;;;;;;;770839;181;919336;-67
2021/03/08 02:51:27;;;;;;;55.03;33.53;;;;;;;;;;770867;180;919126;-68
2021/03/08 02:53:52;;;;;;;58.33;33.30;;;;;;;;;;772212;180;919382;-68
2021/03/08 02:56:18;;;;;;;50.73;33.03;;;;;;;;;;768236;180;919411;-68
2021/03/08 02:58:44;;;;;;;57.43;31.23;;;;;;;;;;769518;181;919527;-68
2021/03/08 03:01:10;;;;;;;53.90;31.63;;;;;;;;;;756227;182;918645;-68
2021/03/08 03:03:37;;;;;;;62.27;35.20;;;;;;;;;;765348;180;919338;-68
2021/03/08 03:06:03;;;;;;;63.67;35.08;;;;;;;;;;764946;180;918518;-68
2021/03/08 03:08:28;;;;;;;56.37;34.00;;;;;;;;;;777414;181;921806;-68
2021/03/08 03:10:54;;;;;;;55.85;34.60;;;;;;;;;;755628;181;2720677;-68
2021/03/08 03:13:20;;;;;;;50.47;31.50;;;;;;;;;;770924;181;919470;-68
2021/03/08 03:15:46;;;;;;;50.23;28.87;;;;;;;;;;774804;180;919684;-67
2021/03/08 03:18:13;;;;;;;52.20;30.83;;;;;;;;;;770657;180;1124751;-68
2021/03/08 03:20:38;;;;;;;54.47;31.73;;;;;;;;;;771297;180;919752;-68
2021/03/08 03:23:04;;;;;;;54.77;31.67;;;;;;;;;;772739;180;918529;-68
2021/03/08 03:25:30;;;;;;;57.07;30.57;;;;;;;;;;772043;180;918774;-65
2021/03/08 03:27:56;;;;;;;54.33;30.67;;;;;;;;;;764932;180;919231;-70
2021/03/08 03:30:22;;;;;;;46.03;30.10;;;;;;;;;;767290;180;919240;-68
2021/03/08 03:32:48;;;;;;;50.53;27.13;;;;;;;;;;769701;181;917622;-68
2021/03/08 03:35:14;;;;;;;53.17;31.90;;;;;;;;;;768717;181;918886;-68
2021/03/08 03:37:40;;;;;;;54.47;29.80;;;;;;;;;;769825;179;919513;-68
2021/03/08 03:40:07;;;;;;;57.07;34.30;;;;;;;;;;779569;180;919367;-67
2021/03/08 03:42:33;;;;;;;60.80;36.27;;;;;;;;;;766836;179;918846;-68
2021/03/08 03:44:58;;;;;;;58.65;33.72;;;;;;;;;;772875;180;919355;-68
2021/03/08 03:47:24;;;;;;;52.70;32.60;;;;;;;;;;774627;181;919513;-68
2021/03/08 03:49:50;;;;;;;56.70;30.67;;;;;;;;;;767364;180;919243;-68
2021/03/08 03:52:16;;;;;;;88.53;31.47;;;;;;;;;;771674;180;918334;-68
2021/03/08 03:54:42;;;;;;;52.07;29.53;;;;;;;;;;774622;180;919424;-67
2021/03/08 03:57:08;;;;;;;49.37;30.40;;;;;;;;;;775655;180;918888;-67
2021/03/08 03:59:48;;;;;;;49.63;28.27;;;;;;;;;;768997;180;920287;-68
2021/03/08 04:02:19;;;;;;;49.15;29.05;;;;;;;;;;769401;180;919011;-69
2021/03/08 04:04:46;;;;;;;57.37;31.20;;;;;;;;;;769186;180;916225;-69
2021/03/08 04:07:11;;;;;;;54.43;29.03;;;;;;;;;;777184;181;870695;-69
2021/03/08 04:09:37;;;;;;;59.63;31.45;;;;;;;;;;769031;180;919339;-69
2021/03/08 04:12:04;;;;;;;55.77;31.20;;;;;;;;;;771519;181;918159;-68
2021/03/08 04:14:29;;;;;;;57.53;29.93;;;;;;;;;;774304;180;919215;-69
2021/03/08 04:16:55;;;;;;;47.33;28.60;;;;;;;;;;761896;180;917922;-69
2021/03/08 04:19:21;;;;;;;58.57;32.30;;;;;;;;;;760700;180;2060188;-68
2021/03/08 04:21:47;;;;;;;56.90;29.75;;;;;;;;;;772313;181;918658;-68
2021/03/08 04:24:13;;;;;;;57.10;33.33;;;;;;;;;;775686;180;911018;-67
2021/03/08 04:26:39;;;;;;;61.20;33.77;;;;;;;;;;770279;180;923189;-68
2021/03/08 04:29:05;;;;;;;57.77;33.40;;;;;;;;;;764302;181;918675;-68
2021/03/08 04:31:30;;;;;;;55.77;32.40;;;;;;;;;;773401;181;919592;-68
2021/03/08 04:33:56;;;;;;;66.73;37.80;;;;;;;;;;766518;180;919380;-68
2021/03/08 04:36:22;;;;;;;56.97;34.07;;;;;;;;;;767935;181;920269;-68
2021/03/08 04:38:48;;;;;;;58.50;34.37;;;;;;;;;;776818;181;854348;-67
2021/03/08 04:41:15;;;;;;;66.90;35.43;;;;;;;;;;768471;181;1124237;-67
2021/03/08 04:43:40;;;;;;;79.12;35.13;;;;;;;;;;770741;180;919318;-67
2021/03/08 04:46:07;;;;;;;61.67;32.92;;;;;;;;;;768951;181;918874;-67
2021/03/08 04:48:33;;;;;;;64.63;36.57;;;;;;;;;;766598;182;925543;-67
2021/03/08 04:50:59;;;;;;;64.90;39.03;;;;;;;;;;767545;180;916602;-67
2021/03/08 04:53:25;;;;;;;79.03;41.77;;;;;;;;;;772287;180;915789;-67
2021/03/08 04:55:50;;;;;;;59.77;37.37;;;;;;;;;;775215;180;918014;-68
2021/03/08 04:58:16;;;;;;;63.50;37.37;;;;;;;;;;774076;181;919572;-66
2021/03/08 05:00:42;;;;;;;62.70;35.83;;;;;;;;;;765606;181;1899338;-67
2021/03/08 05:03:08;;;;;;;78.72;42.10;;;;;;;;;;777151;180;919137;-67
2021/03/08 05:05:34;;;;;;;66.03;40.80;;;;;;;;;;769736;180;919189;-67
2021/03/08 05:08:00;;;;;;;81.23;40.93;;;;;;;;;;773135;180;918390;-67
2021/03/08 05:10:26;;;;;;;70.57;38.07;;;;;;;;;;771897;181;919243;-67
2021/03/08 05:12:51;;;;;;;62.37;39.00;;;;;;;;;;772868;181;918534;-67
2021/03/08 05:15:18;;;;;;;65.75;36.97;;;;;;;;;;770382;181;919568;-67
2021/03/08 05:17:44;;;;;;;74.43;39.40;;;;;;;;;;772673;178;920374;-67
2021/03/08 05:20:11;;;;;;;77.40;37.70;;;;;;;;;;776646;179;919905;-67
2021/03/08 05:22:37;;;;;;;71.53;39.17;;;;;;;;;;770729;180;919027;-68
2021/03/08 05:25:03;;;;;;;71.20;36.05;;;;;;;;;;769903;180;919373;-67
2021/03/08 05:27:29;;;;;;;59.83;34.53;;;;;;;;;;772265;180;983622;-67
2021/03/08 05:29:55;;;;;;;60.70;38.37;;;;;;;;;;772580;180;920646;-67
2021/03/08 05:32:36;;;;;;;64.50;37.92;;;;;;;;;;768900;180;919048;-67
2021/03/08 05:35:02;;;;;;;61.17;37.37;;;;;;;;;;769654;180;919172;-67
2021/03/08 05:37:28;;;;;;;67.10;37.77;;;;;;;;;;772191;180;1031828;-68
2021/03/08 05:39:54;;;;;;;72.03;40.07;;;;;;;;;;773233;180;919225;-68
2021/03/08 05:42:20;;;;;;;70.15;39.75;;;;;;;;;;770047;181;920118;-67
2021/03/08 05:44:53;;;;;;;75.40;39.30;;;;;;;;;;772703;181;955003;-67
2021/03/08 05:47:24;;;;;;;79.67;46.60;;;;;;;;;;769176;180;1371534;-67
2021/03/08 05:50:05;;;;;;;110.53;59.37;;;;;;;;;;764518;181;919636;-68
2021/03/08 05:52:49;;;;;;;89.10;46.33;;;;;;;;;;762653;180;919154;-68
2021/03/08 05:55:20;;;;;;;107.47;52.40;;;;;;;;;;769897;180;919702;-68
2021/03/08 05:57:52;;;;;;;103.77;49.93;;;;;;;;;;764515;180;918064;-68
2021/03/08 06:00:25;;;;;;;80.10;44.20;;;;;;;;;;774576;180;922815;-68
2021/03/08 06:03:07;;;;;;;81.23;42.87;;;;;;;;;;769357;179;919721;-68
2021/03/08 06:05:38;;;;;;;79.73;43.77;;;;;;;;;;768129;180;920175;-69
2021/03/08 06:08:05;;;;;;;85.40;45.43;;;;;;;;;;776957;180;637236;-68
2021/03/08 06:10:30;;;;;;;78.17;44.10;;;;;;;;;;769257;180;918438;-67
2021/03/08 06:12:56;;;;;;;99.93;53.77;;;;;;;;;;765719;181;918962;-67
2021/03/08 06:15:22;;;;;;;137.87;69.50;;;;;;;;;;778251;181;918630;-68
2021/03/08 06:17:50;;;;;;;122.47;60.77;;;;;;;;;;771515;180;920411;-68
2021/03/08 06:20:15;;;;;;;115.33;59.30;;;;;;;;;;768203;180;919278;-68
2021/03/08 06:22:42;;;;;;;121.90;61.40;;;;;;;;;;771475;181;921910;-66
2021/03/08 06:25:08;;;;;;;131.33;63.80;;;;;;;;;;762468;183;919094;-67
2021/03/08 06:27:34;;;;;;;118.53;57.53;;;;;;;;;;770128;180;917718;-68
2021/03/08 06:30:00;;;;;;;96.93;50.80;;;;;;;;;;771685;180;758446;-68
2021/03/08 06:32:26;;;;;;;123.43;56.27;;;;;;;;;;777462;180;919283;-68
2021/03/08 06:34:52;;;;;;;150.77;68.70;;;;;;;;;;771717;181;919203;-67
2021/03/08 06:37:17;;;;;;;152.57;67.60;;;;;;;;;;774432;181;918864;-68
2021/03/08 06:39:43;;;;;;;143.67;69.80;;;;;;;;;;772756;181;918655;-67
2021/03/08 06:42:10;;;;;;;169.30;78.97;;;;;;;;;;771520;181;919455;-68
2021/03/08 06:44:36;;;;;;;112.10;58.33;;;;;;;;;;768274;181;919423;-68
2021/03/08 06:47:01;;;;;;;121.67;55.67;;;;;;;;;;777729;181;918544;-67
2021/03/08 06:49:27;;;;;;;98.93;49.30;;;;;;;;;;768088;180;918717;-68
2021/03/08 06:51:59;;;;;;;90.43;45.80;;;;;;;;;;773067;180;922102;-68
2021/03/08 06:54:25;;;;;;;69.80;38.50;;;;;;;;;;769660;181;1007871;-67
2021/03/08 06:56:51;;;;;;;73.47;39.97;;;;;;;;;;776805;180;919420;-68
2021/03/08 06:59:20;;;;;;;61.67;35.10;;;;;;;;;;765376;180;1722891;-68
2021/03/08 07:01:46;;;;;;;73.37;38.80;;;;;;;;;;771758;177;919463;-67
2021/03/08 07:04:12;;;;;;;62.95;36.60;;;;;;;;;;778043;180;918107;-65
2021/03/08 07:06:37;;;;;;;72.10;38.40;;;;;;;;;;770029;180;919118;-67
2021/03/08 07:09:04;;;;;;;69.83;35.67;;;;;;;;;;772491;180;919485;-67
2021/03/08 07:11:29;;;;;;;63.73;37.57;;;;;;;;;;769333;180;919605;-66
2021/03/08 07:13:55;;;;;;;63.73;39.00;;;;;;;;;;779847;180;922026;-66
2021/03/08 07:16:21;;;;;;;66.93;33.63;;;;;;;;;;763718;180;1191774;-67
2021/03/08 07:18:47;;;;;;;75.00;36.40;;;;;;;;;;771592;180;918965;-66
2021/03/08 07:21:14;;;;;;;75.03;36.37;;;;;;;;;;769541;181;919435;-66
2021/03/08 07:23:40;;;;;;;59.30;34.47;;;;;;;;;;770675;180;919548;-66
2021/03/08 07:26:05;;;;;;;69.12;34.47;;;;;;;;;;769924;180;915455;-66
2021/03/08 07:28:31;;;;;;;58.87;32.70;;;;;;;;;;775110;181;915551;-67
2021/03/08 07:30:57;;;;;;;65.37;33.87;;;;;;;;;;768689;179;917505;-70
2021/03/08 07:33:23;;;;;;;64.37;34.20;;;;;;;;;;769249;180;926425;-67
2021/03/08 07:35:52;;;;;;;70.80;34.20;;;;;;;;;;771408;180;1617115;-66
2021/03/08 07:38:32;;;;;;;57.05;34.53;;;;;;;;;;775527;180;918229;-67
2021/03/08 07:41:05;;;;;;;57.50;31.20;;;;;;;;;;772655;180;922356;-69
2021/03/08 07:43:31;;;;;;;58.03;33.30;;;;;;;;;;773256;180;921994;-67
2021/03/08 07:45:57;;;;;;;53.22;31.02;;;;;;;;;;772145;181;922064;-67
2021/03/08 07:48:23;;;;;;;56.53;31.37;;;;;;;;;;775343;180;1018986;-66
2021/03/08 07:50:49;;;;;;;50.73;29.70;;;;;;;;;;772651;180;921438;-66
2021/03/08 07:53:21;;;;;;;57.60;33.65;;;;;;;;;;769293;180;918265;-67
2021/03/08 07:55:47;;;;;;;48.73;29.83;;;;;;;;;;770207;180;919068;-66
2021/03/08 07:58:12;;;;;;;53.90;30.83;;;;;;;;;;762855;180;2481747;-67
2021/03/08 08:00:38;;;;;;;52.33;30.40;;;;;;;;;;773992;181;919255;-66
2021/03/08 08:03:04;;;;;;;61.53;31.97;;;;;;;;;;767159;180;918269;-67
2021/03/08 08:05:30;;;;;;;70.00;36.60;;;;;;;;;;768216;182;950104;-66
2021/03/08 08:07:56;;;;;;;54.07;33.60;;;;;;;;;;763461;180;919908;-67
2021/03/08 08:10:22;;;;;;;67.13;32.87;;;;;;;;;;769771;180;919062;-67
2021/03/08 08:12:48;;;;;;;60.67;31.60;;;;;;;;;;769511;180;920275;-67
2021/03/08 08:15:16;;;;;;;51.07;30.97;;;;;;;;;;772103;180;914948;-66
2021/03/08 08:17:42;;;;;;;58.37;34.37;;;;;;;;;;772956;179;923650;-66
2021/03/08 08:20:10;;;;;;;55.33;31.55;;;;;;;;;;769948;181;919029;-67
2021/03/08 08:22:36;;;;;;;59.33;35.47;;;;;;;;;;775354;180;919169;-66
2021/03/08 08:25:03;;;;;;;60.17;32.87;;;;;;;;;;773507;180;840494;-67
2021/03/08 08:27:29;;;;;;;53.53;32.13;;;;;;;;;;767693;180;918435;-66
2021/03/08 08:29:55;;;;;;;52.97;31.50;;;;;;;;;;775968;180;919252;-66
2021/03/08 08:32:20;;;;;;;53.20;31.40;;;;;;;;;;774758;177;919069;-66
2021/03/08 08:34:47;;;;;;;67.07;33.30;;;;;;;;;;768300;181;921267;-66
2021/03/08 08:37:12;;;;;;;60.90;32.40;;;;;;;;;;773930;180;919403;-65
2021/03/08 08:39:38;;;;;;;55.70;31.83;;;;;;;;;;769062;180;1234639;-66
2021/03/08 08:42:10;;;;;;;54.07;30.13;;;;;;;;;;772586;180;918522;-66
2021/03/08 08:44:36;;;;;;;55.33;29.63;;;;;;;;;;770153;180;930814;-67
2021/03/08 08:47:14;;;;;;;66.40;33.70;;;;;;;;;;778118;181;918521;-68
2021/03/08 08:49:40;;;;;;;53.50;30.70;;;;;;;;;;769785;180;919018;-67
2021/03/08 08:52:06;;;;;;;53.92;29.98;;;;;;;;;;769805;180;955619;-68
2021/03/08 08:54:46;;;;;;;60.97;31.07;;;;;;;;;;766061;180;919839;-68
2021/03/08 08:57:12;;;;;;;49.72;29.23;;;;;;;;;;770238;180;918191;-68
2021/03/08 08:59:38;;;;;;;52.23;30.30;;;;;;;;;;773328;181;920909;-67
2021/03/08 09:02:10;;;;;;;50.07;30.10;;;;;;;;;;772380;181;919153;-66
2021/03/08 09:04:37;;;;;;;51.50;30.83;;;;;;;;;;764946;180;1058656;-67
2021/03/08 09:07:03;;;;;;;57.00;29.95;;;;;;;;;;772312;180;921003;-67
2021/03/08 09:09:46;;;;;;;54.40;27.43;;;;;;;;;;774049;181;915033;-66
2021/03/08 09:12:18;;;;;;;45.97;29.07;;;;;;;;;;760143;180;916382;-68
2021/03/08 09:14:57;;;;;;;53.07;28.50;;;;;;;;;;767970;180;916627;-68
2021/03/08 09:17:23;;;;;;;56.53;31.57;;;;;;;;;;772267;181;929595;-68
2021/03/08 09:19:51;;;;;;;48.60;30.30;;;;;;;;;;770018;180;925586;-65
2021/03/08 09:22:35;;;;;;;57.73;29.93;;;;;;;;;;775085;181;908705;-67
2021/03/08 09:25:02;;;;;;;67.50;32.53;;;;;;;;;;768753;180;1005295;-66
2021/03/08 09:27:29;;;;;;;56.73;30.83;;;;;;;;;;770194;180;915033;-67
2021/03/08 09:29:54;;;;;;;63.90;32.27;;;;;;;;;;771509;180;920009;-68
2021/03/08 09:32:20;;;;;;;55.80;32.13;;;;;;;;;;769619;180;919553;-68
2021/03/08 09:34:46;;;;;;;49.13;29.50;;;;;;;;;;779980;179;919058;-67
2021/03/08 09:37:12;;;;;;;42.77;25.77;;;;;;;;;;769539;180;919213;-67
2021/03/08 09:39:44;;;;;;;51.93;29.30;;;;;;;;;;771729;180;919483;-67
2021/03/08 09:42:10;;;;;;;51.50;28.30;;;;;;;;;;775483;180;922825;-66
2021/03/08 09:44:38;;;;;;;51.80;31.17;;;;;;;;;;779010;178;918906;-67
2021/03/08 09:47:04;;;;;;;65.50;32.53;;;;;;;;;;760576;180;2387827;-70
2021/03/08 09:49:36;;;;;;;52.50;32.70;;;;;;;;;;769851;180;1015934;-67
2021/03/08 09:52:01;;;;;;;59.53;32.30;;;;;;;;;;771789;181;915611;-68
2021/03/08 09:54:27;;;;;;;69.53;35.80;;;;;;;;;;772176;180;919559;-68
2021/03/08 09:56:53;;;;;;;57.33;31.03;;;;;;;;;;764441;180;918023;-67
2021/03/08 09:59:19;;;;;;;67.20;34.50;;;;;;;;;;773797;180;919574;-64
2021/03/08 10:01:45;;;;;;;60.63;32.10;;;;;;;;;;768825;180;918711;-67
2021/03/08 10:04:11;;;;;;;53.40;31.10;;;;;;;;;;771039;180;919227;-67
2021/03/08 10:06:37;;;;;;;56.70;32.20;;;;;;;;;;772457;180;918348;-67
2021/03/08 10:09:09;;;;;;;64.07;36.60;;;;;;;;;;776359;180;919393;-67
2021/03/08 10:11:35;;;;;;;56.85;29.10;;;;;;;;;;772519;180;919003;-69
2021/03/08 10:14:01;;;;;;;59.20;31.33;;;;;;;;;;767553;181;918117;-67
2021/03/08 10:16:27;;;;;;;53.70;31.65;;;;;;;;;;775588;181;919632;-69
2021/03/08 10:18:53;;;;;;;52.40;27.60;;;;;;;;;;768827;180;920027;-67
2021/03/08 10:21:19;;;;;;;49.20;28.40;;;;;;;;;;771771;181;918992;-67
2021/03/08 10:23:45;;;;;;;52.70;29.93;;;;;;;;;;764250;180;919462;-67
2021/03/08 10:26:10;;;;;;;52.65;31.12;;;;;;;;;;774630;181;919177;-68
2021/03/08 10:28:37;;;;;;;57.90;30.37;;;;;;;;;;769573;179;916807;-68
2021/03/08 10:31:03;;;;;;;53.30;30.48;;;;;;;;;;769971;180;919067;-67
2021/03/08 10:33:29;;;;;;;51.23;29.37;;;;;;;;;;771128;180;918546;-67
2021/03/08 10:35:56;;;;;;;52.07;30.27;;;;;;;;;;769928;180;918937;-68
2021/03/08 10:38:21;;;;;;;56.97;31.80;;;;;;;;;;764913;181;918849;-69
2021/03/08 10:40:46;;;;;;;48.57;28.23;;;;;;;;;;772488;180;919574;-68
2021/03/08 10:43:13;;;;;;;54.27;30.90;;;;;;;;;;765732;180;921156;-69
2021/03/08 10:45:39;;;;;;;45.10;27.27;;;;;;;;;;768486;180;919418;-67
2021/03/08 10:48:13;;;;;;;56.03;30.00;;;;;;;;;;772347;180;918794;-68
2021/03/08 10:50:51;;;;;;;54.23;29.20;;;;;;;;;;765972;182;918996;-68
2021/03/08 10:53:17;;;;;;;57.17;30.03;;;;;;;;;;778406;180;856255;-68
2021/03/08 10:55:43;;;;;;;53.83;30.40;;;;;;;;;;768369;180;1020953;-68
2021/03/08 10:58:09;;;;;;;49.30;29.47;;;;;;;;;;776573;180;919062;-68
2021/03/08 11:00:35;;;;;;;55.13;29.93;;;;;;;;;;773426;180;914660;-69
2021/03/08 11:03:01;;;;;;;58.33;33.53;;;;;;;;;;772163;180;915677;-69
2021/03/08 11:05:27;;;;;;;55.00;29.93;;;;;;;;;;770211;180;916480;-68
2021/03/08 11:07:53;;;;;;;61.83;32.77;;;;;;;;;;779457;180;811987;-68
2021/03/08 11:10:36;;;;;;;67.27;34.20;;;;;;;;;;764625;180;916519;-67
2021/03/08 11:13:03;;;;;;;60.83;29.80;;;;;;;;;;771038;180;920255;-66
2021/03/08 11:15:29;;;;;;;57.00;31.85;;;;;;;;;;771318;180;916758;-64
2021/03/08 11:17:54;;;;;;;61.57;33.77;;;;;;;;;;771388;180;919802;-64
2021/03/08 11:20:22;;;;;;;58.85;32.90;;;;;;;;;;773228;180;920589;-64
2021/03/08 11:22:52;;;;;;;57.00;32.92;;;;;;;;;;772214;180;918321;-63
2021/03/08 11:25:25;;;;;;;60.17;36.60;;;;;;;;;;762928;180;919007;-63
2021/03/08 11:27:51;;;;;;;52.87;32.20;;;;;;;;;;772969;180;918494;-62
2021/03/08 11:30:17;;;;;;;60.17;32.60;;;;;;;;;;772249;180;919493;-64
2021/03/08 11:32:43;;;;;;;55.07;32.00;;;;;;;;;;766955;180;919163;-61
2021/03/08 11:35:14;;;;;;;68.53;37.85;;;;;;;;;;768039;180;933694;-63
2021/03/08 11:37:40;;;;;;;65.27;34.20;;;;;;;;;;775656;180;918778;-64
2021/03/08 11:40:09;;;;;;;47.97;28.67;;;;;;;;;;773197;180;920442;-63
2021/03/08 11:42:35;;;;;;;57.97;33.33;;;;;;;;;;770495;180;919070;-64
2021/03/08 11:45:01;;;;;;;51.83;29.05;;;;;;;;;;768232;180;919251;-63
2021/03/08 11:47:28;;;;;;;56.60;32.33;;;;;;;;;;777289;180;919105;-63
2021/03/08 11:49:54;;;;;;;47.58;26.70;;;;;;;;;;773170;181;945018;-63
2021/03/08 11:52:20;;;;;;;45.83;26.70;;;;;;;;;;770362;180;1025606;-64
2021/03/08 11:54:46;;;;;;;44.87;22.17;;;;;;;;;;775692;180;918169;-62
2021/03/08 11:57:11;;;;;;;37.13;20.67;;;;;;;;;;768163;180;919423;-63
2021/03/08 11:59:37;;;;;;;33.57;19.23;;;;;;;;;;770241;180;919053;-64
2021/03/08 12:02:04;;;;;;;43.13;21.60;;;;;;;;;;766317;180;918533;-63
2021/03/08 12:04:29;;;;;;;22.50;10.63;;;;;;;;;;769190;180;899200;-63
2021/03/08 12:06:55;;;;;;;25.97;12.47;;;;;;;;;;771275;180;919467;-64
2021/03/08 12:09:21;;;;;;;32.83;13.10;;;;;;;;;;771640;180;1020724;-63
2021/03/08 12:11:47;;;;;;;25.07;11.83;;;;;;;;;;769727;180;933131;-64
2021/03/08 12:14:13;;;;;;;22.53;14.03;;;;;;;;;;767780;181;919682;-63
2021/03/08 12:16:39;;;;;;;24.70;13.13;;;;;;;;;;761479;181;919740;-63
2021/03/08 12:19:05;;;;;;;28.90;14.10;;;;;;;;;;778562;181;918616;-63
2021/03/08 12:21:31;;;;;;;21.43;11.20;;;;;;;;;;776058;180;917586;-65
2021/03/08 12:23:56;;;;;;;20.33;11.23;;;;;;;;;;758400;182;1041974;-64
2021/03/08 12:26:22;;;;;;;24.57;12.47;;;;;;;;;;773209;180;919636;-65
2021/03/08 12:28:48;;;;;;;17.07;9.60;;;;;;;;;;769806;180;918407;-62
2021/03/08 12:31:14;;;;;;;20.97;10.77;;;;;;;;;;770381;180;919232;-65
2021/03/08 12:33:40;;;;;;;17.20;11.63;;;;;;;;;;769053;181;920033;-64
2021/03/08 12:36:06;;;;;;;18.90;12.37;;;;;;;;;;770098;180;918512;-64
2021/03/08 12:38:32;;;;;;;20.27;11.75;;;;;;;;;;769434;179;918952;-64
2021/03/08 12:40:58;;;;;;;24.27;14.10;;;;;;;;;;769910;180;927436;-65
2021/03/08 12:43:23;;;;;;;24.13;12.30;;;;;;;;;;773671;180;918089;-65
2021/03/08 12:45:49;;;;;;;18.80;11.23;;;;;;;;;;762637;180;918854;-63
2021/03/08 12:48:15;;;;;;;21.70;11.83;;;;;;;;;;768408;180;915333;-62
2021/03/08 12:50:41;;;;;;;22.47;13.27;;;;;;;;;;773286;180;917831;-64
2021/03/08 12:53:07;;;;;;;26.50;14.43;;;;;;;;;;765797;180;918552;-63
2021/03/08 12:55:33;;;;;;;26.30;14.80;;;;;;;;;;771829;181;919246;-65
2021/03/08 12:57:59;;;;;;;22.47;12.83;;;;;;;;;;776740;180;894848;-65
2021/03/08 13:00:25;;;;;;;27.73;14.10;;;;;;;;;;768240;180;919412;-65
2021/03/08 13:02:51;;;;;;;15.37;9.10;;;;;;;;;;769230;178;921019;-65
2021/03/08 13:05:17;;;;;;;19.13;11.10;;;;;;;;;;768923;180;917503;-64
2021/03/08 13:07:42;;;;;;;25.83;12.00;;;;;;;;;;776277;180;919177;-63
2021/03/08 13:10:09;;;;;;;12.70;8.03;;;;;;;;;;772653;178;917948;-64
2021/03/08 13:12:35;;;;;;;22.90;12.00;;;;;;;;;;768189;180;921710;-64
2021/03/08 13:15:01;;;;;;;23.60;10.80;;;;;;;;;;776637;180;916692;-64
2021/03/08 13:17:27;;;;;;;14.53;9.10;;;;;;;;;;771349;180;921694;-65
2021/03/08 13:19:52;;;;;;;12.73;8.93;;;;;;;;;;771093;180;919418;-64
2021/03/08 13:22:18;;;;;;;15.23;7.57;;;;;;;;;;777489;180;915881;-64
2021/03/08 13:24:44;;;;;;;16.93;8.67;;;;;;;;;;760815;179;2760492;-64
2021/03/08 13:27:10;;;;;;;22.10;10.40;;;;;;;;;;775642;180;921696;-64
2021/03/08 13:29:36;;;;;;;13.57;7.47;;;;;;;;;;767467;180;918205;-64
2021/03/08 13:32:02;;;;;;;21.63;9.10;;;;;;;;;;774923;181;915733;-62
2021/03/08 13:34:28;;;;;;;16.10;8.50;;;;;;;;;;772131;181;911818;-62
2021/03/08 13:36:55;;;;;;;13.13;7.60;;;;;;;;;;768477;179;975746;-63
2021/03/08 13:39:20;;;;;;;23.90;8.20;;;;;;;;;;777029;179;914366;-64
2021/03/08 13:41:46;;;;;;;14.93;8.70;;;;;;;;;;768497;181;920215;-61
2021/03/08 13:44:12;;;;;;;20.67;13.60;;;;;;;;;;768196;181;918462;-64
2021/03/08 13:46:38;;;;;;;16.93;10.93;;;;;;;;;;765722;181;2460580;-64
2021/03/08 13:49:04;;;;;;;22.75;13.48;;;;;;;;;;770699;181;919604;-63
2021/03/08 13:51:30;;;;;;;16.30;8.35;;;;;;;;;;764628;180;1740705;-64
2021/03/08 13:53:56;;;;;;;14.87;8.80;;;;;;;;;;779519;180;919136;-67
2021/03/08 13:56:22;;;;;;;15.30;9.10;;;;;;;;;;768673;180;918172;-66
2021/03/08 13:58:47;;;;;;;10.83;7.40;;;;;;;;;;767416;180;918806;-66
2021/03/08 14:01:13;;;;;;;11.93;6.70;;;;;;;;;;763364;180;919029;-66